Time;durP1;ratioP1;P1;durP2;ratioP2;P2;SDS_P1;SDS_P2;PMS_P1;PMS_P2;Temp;Humidity;BMP_temperature;BMP_pressure;BME280_temperature;BME280_humidity;BME280_pressure;Samples;Min_cycle;Max_cycle;Signal;HPM_P1;HPM_P2
2023/03/20 00:00:09;;;;;;;41.40;26.00;;;;;;;3.55;62.70;100533.41;106792;1259;1016223;-73
2023/03/20 00:05:01;;;;;;;43.90;27.30;;;;;;;3.47;62.56;100531.05;106831;1259;1054011;-74
2023/03/20 00:09:56;;;;;;;40.20;24.30;;;;;;;3.40;62.84;100528.02;106758;1259;1019811;-74
2023/03/20 00:14:49;;;;;;;41.70;25.60;;;;;;;3.33;63.05;100523.09;106808;1257;1072602;-73
2023/03/20 00:19:42;;;;;;;43.70;25.20;;;;;;;3.32;63.27;100518.05;106855;1259;1016226;-73
2023/03/20 00:24:35;;;;;;;39.10;24.10;;;;;;;3.31;63.28;100515.96;106825;1258;1016238;-73
2023/03/20 00:29:31;;;;;;;41.10;24.30;;;;;;;3.28;63.42;100513.77;106799;1260;1016441;-73
2023/03/20 00:34:27;;;;;;;43.70;26.60;;;;;;;3.31;63.34;100514.05;106754;1257;1061608;-73
2023/03/20 00:39:20;;;;;;;36.80;22.90;;;;;;;3.34;63.39;100516.92;106850;1257;1072764;-73
2023/03/20 00:44:25;;;;;;;38.00;23.90;;;;;;;3.34;63.54;100512.65;106821;1259;1020600;-73
2023/03/20 00:49:22;;;;;;;43.00;24.60;;;;;;;3.36;63.43;100508.09;106816;1258;1070783;-73
2023/03/20 00:54:17;;;;;;;34.80;22.00;;;;;;;3.33;63.72;100502.16;106825;1260;1050751;-73
2023/03/20 00:59:18;;;;;;;37.80;21.70;;;;;;;3.26;63.54;100498.46;106915;1257;1059208;-73
2023/03/20 01:04:16;;;;;;;36.20;24.80;;;;;;;3.23;63.76;100497.79;106848;1259;1072096;-73
2023/03/20 01:09:09;;;;;;;31.70;22.00;;;;;;;3.19;63.74;100496.45;106826;1259;1065006;-73
2023/03/20 01:14:03;;;;;;;35.00;22.40;;;;;;;3.15;63.98;100489.39;106855;1259;1016144;-73
2023/03/20 01:18:56;;;;;;;30.50;20.30;;;;;;;3.12;63.95;100489.92;106874;1259;1017672;-73
2023/03/20 01:23:49;;;;;;;36.00;21.20;;;;;;;3.02;64.08;100491.92;106803;1258;1016604;-73
2023/03/20 01:28:42;;;;;;;32.50;21.00;;;;;;;2.96;64.33;100491.65;106768;1260;1016376;-73
2023/03/20 01:33:35;;;;;;;32.90;21.50;;;;;;;2.92;64.30;100491.31;106717;1257;1016898;-73
2023/03/20 01:38:28;;;;;;;33.70;21.00;;;;;;;2.87;64.46;100490.05;106742;1258;1016241;-73
2023/03/20 01:43:23;;;;;;;34.60;19.90;;;;;;;2.85;64.56;100489.81;106857;1256;1016645;-73
2023/03/20 01:48:18;;;;;;;33.80;20.20;;;;;;;2.81;64.96;100491.66;106802;1259;1016183;-73
2023/03/20 01:53:15;;;;;;;34.30;20.70;;;;;;;2.78;64.89;100487.24;106830;1258;1073217;-73
2023/03/20 01:58:21;;;;;;;33.80;20.90;;;;;;;2.77;64.83;100481.57;106823;1259;1066046;-73
2023/03/20 02:03:16;;;;;;;32.80;22.30;;;;;;;2.75;65.29;100475.66;106846;1258;1070474;-73
2023/03/20 02:08:31;;;;;;;29.30;19.50;;;;;;;2.74;65.07;100473.71;106726;1259;1051605;-73
2023/03/20 02:13:29;;;;;;;30.40;19.50;;;;;;;2.68;64.97;100475.54;106837;1258;1058305;-73
2023/03/20 02:18:24;;;;;;;33.80;20.80;;;;;;;2.66;65.24;100470.85;106779;1262;1072530;-73
2023/03/20 02:23:52;;;;;;;41.90;21.70;;;;;;;2.67;65.39;100464.54;106711;1259;1145087;-73
2023/03/20 02:29:02;;;;;;;34.30;20.90;;;;;;;2.67;65.47;100460.77;106222;1267;1070733;-73
2023/03/20 02:34:28;;;;;;;33.80;19.30;;;;;;;2.65;65.44;100456.59;106296;1268;1052271;-73
2023/03/20 02:39:49;;;;;;;32.40;20.00;;;;;;;2.59;65.48;100456.66;106263;1267;1058097;-73
2023/03/20 02:45:24;;;;;;;28.70;19.10;;;;;;;2.54;65.55;100456.08;106281;1266;1075573;-73
2023/03/20 02:50:41;;;;;;;33.70;19.90;;;;;;;2.53;65.74;100448.50;106227;1270;1065690;-73
2023/03/20 02:55:39;;;;;;;30.90;18.70;;;;;;;2.47;65.81;100445.84;106327;1267;1071279;-73
2023/03/20 03:00:38;;;;;;;32.00;19.90;;;;;;;2.43;65.88;100446.50;106379;1267;1051326;-73
2023/03/20 03:05:41;;;;;;;38.50;20.80;;;;;;;2.39;66.13;100444.65;106636;1258;1058522;-73
2023/03/20 03:10:43;;;;;;;32.60;19.90;;;;;;;2.38;66.26;100438.75;106783;1260;1072693;-74
2023/03/20 03:15:40;;;;;;;32.30;19.40;;;;;;;2.36;66.24;100442.96;106768;1257;1065710;-73
2023/03/20 03:20:45;;;;;;;32.00;19.80;;;;;;;2.35;66.26;100444.60;106762;1260;1071475;-73
2023/03/20 03:25:41;;;;;;;29.20;18.90;;;;;;;2.29;66.32;100442.80;106824;1260;1051279;-74
2023/03/20 03:30:38;;;;;;;35.20;21.20;;;;;;;2.27;66.58;100442.23;106770;1259;1061083;-73
2023/03/20 03:35:31;;;;;;;29.60;19.20;;;;;;;2.28;66.68;100443.79;106766;1257;1082390;-73
2023/03/20 03:40:34;;;;;;;26.70;18.50;;;;;;;2.24;66.55;100441.36;106762;1258;1017151;-73
2023/03/20 03:45:40;;;;;;;32.00;19.60;;;;;;;2.19;66.49;100439.60;106837;1262;1071235;-73
2023/03/20 03:50:47;;;;;;;33.70;20.90;;;;;;;2.15;66.75;100435.52;106862;1262;1051700;-73
2023/03/20 03:55:46;;;;;;;29.00;18.80;;;;;;;2.17;67.09;100429.96;106798;1257;1057939;-73
2023/03/20 04:00:45;;;;;;;31.50;21.20;;;;;;;2.19;66.86;100425.93;106834;1259;1075549;-73
2023/03/20 04:05:42;;;;;;;30.00;18.40;;;;;;;2.19;67.09;100422.15;106872;1262;1065537;-73
2023/03/20 04:10:35;;;;;;;;;;;;;;;2.17;67.15;100416.98;106785;1257;1070687;-73
2023/03/20 04:15:28;;;;;;;34.40;20.80;;;;;;;2.15;67.19;100417.56;106765;1262;1016298;-73
2023/03/20 04:20:22;;;;;;;31.40;20.20;;;;;;;2.16;67.19;100423.73;106809;1259;1016164;-73
2023/03/20 04:25:21;;;;;;;30.60;19.70;;;;;;;2.16;67.30;100427.84;106756;1261;1016479;-73
2023/03/20 04:30:18;;;;;;;33.30;20.00;;;;;;;2.12;67.09;100430.42;106789;1257;1065486;-73
2023/03/20 04:35:29;;;;;;;29.00;19.00;;;;;;;2.08;67.67;100430.73;106758;1260;1071986;-73
2023/03/20 04:40:27;;;;;;;34.50;21.40;;;;;;;2.06;67.42;100425.85;106721;1261;1050878;-73
2023/03/20 04:45:21;;;;;;;33.10;20.80;;;;;;;2.04;67.55;100420.59;106765;1259;1016622;-74
2023/03/20 04:50:14;;;;;;;29.00;18.90;;;;;;;2.04;67.73;100424.39;106766;1261;1016211;-73
2023/03/20 04:55:08;;;;;;;31.60;19.80;;;;;;;2.02;67.71;100430.27;106802;1260;1016428;-73
2023/03/20 05:00:02;;;;;;;32.00;19.70;;;;;;;2.02;67.46;100430.25;106771;1262;1016286;-74
2023/03/20 05:04:57;;;;;;;32.30;19.60;;;;;;;2.05;67.67;100431.29;106858;1257;1051122;-73
2023/03/20 05:09:50;;;;;;;31.90;19.60;;;;;;;2.06;67.73;100431.31;106777;1262;1016394;-73
2023/03/20 05:14:43;;;;;;;31.00;20.00;;;;;;;2.13;68.04;100433.85;106828;1257;1016506;-73
2023/03/20 05:20:02;;;;;;;37.60;19.80;;;;;;;2.21;67.69;100442.44;106710;1261;1066306;-73
2023/03/20 05:25:15;;;;;;;28.40;19.80;;;;;;;2.31;67.61;100439.32;106872;1259;1074771;-73
2023/03/20 05:30:25;;;;;;;28.70;19.80;;;;;;;2.45;67.66;100436.69;106865;1257;1050675;-73
2023/03/20 05:35:37;;;;;;;30.70;20.70;;;;;;;2.56;67.63;100439.91;106857;1262;1059243;-73
2023/03/20 05:41:00;;;;;;;32.10;21.00;;;;;;;2.68;67.89;100440.61;106850;1258;1073049;-73
2023/03/20 05:46:04;;;;;;;32.00;20.30;;;;;;;2.80;67.54;100437.89;106745;1259;1064943;-73
2023/03/20 05:51:16;;;;;;;33.90;20.50;;;;;;;2.93;67.69;100439.67;106849;1257;1070371;-73
2023/03/20 05:56:32;;;;;;;33.70;20.90;;;;;;;3.07;67.23;100439.57;106841;1257;1051606;-73
2023/03/20 06:02:04;;;;;;;38.40;21.80;;;;;;;3.24;67.06;100443.18;106419;1262;1059121;-73
2023/03/20 06:06:59;;;;;;;37.00;22.40;;;;;;;3.41;67.44;100440.64;106744;1257;1073671;-73
2023/03/20 06:11:52;;;;;;;38.00;24.10;;;;;;;3.59;67.11;100438.11;106790;1262;1016491;-73
2023/03/20 06:16:46;;;;;;;34.80;22.70;;;;;;;3.79;67.16;100439.25;106684;1260;1016485;-73
2023/03/20 06:21:39;;;;;;;42.70;25.10;;;;;;;4.06;66.88;100443.56;106793;1257;1016380;-74
2023/03/20 06:26:35;;;;;;;39.90;26.60;;;;;;;4.32;66.70;100442.52;106871;1262;1058656;-73
2023/03/20 06:31:30;;;;;;;40.50;27.20;;;;;;;4.55;66.74;100447.66;106771;1261;1075092;-73
2023/03/20 06:36:24;;;;;;;40.80;27.70;;;;;;;4.78;66.70;100449.68;106874;1257;1016499;-74
2023/03/20 06:41:21;;;;;;;;;;;;;;;5.04;66.61;100448.89;106903;1257;1070888;-73
2023/03/20 06:46:27;;;;;;;38.80;25.70;;;;;;;5.29;66.55;100447.52;106867;1257;1051182;-73
2023/03/20 06:51:20;;;;;;;35.10;24.80;;;;;;;5.50;66.30;100438.44;106868;1262;1017722;-73
2023/03/20 06:56:16;;;;;;;36.10;25.40;;;;;;;5.65;66.40;100435.11;106862;1263;1073038;-74
2023/03/20 07:01:12;;;;;;;38.20;25.10;;;;;;;6.08;65.44;100435.10;106809;1257;1016278;-73
2023/03/20 07:06:05;;;;;;;41.50;25.90;;;;;;;6.72;64.64;100438.03;106871;1258;1071177;-73
2023/03/20 07:10:58;;;;;;;34.60;25.70;;;;;;;7.34;63.89;100429.52;106823;1261;1016184;-73
2023/03/20 07:15:51;;;;;;;36.60;25.30;;;;;;;7.52;63.30;100433.42;106799;1258;1016524;-73
2023/03/20 07:21:01;;;;;;;36.30;25.50;;;;;;;7.78;62.92;100427.82;106858;1257;1072542;-73
2023/03/20 07:25:55;;;;;;;36.40;24.70;;;;;;;8.05;62.45;100426.89;106844;1261;1065277;-73
2023/03/20 07:30:49;;;;;;;36.70;26.70;;;;;;;8.20;61.93;100433.12;106865;1258;1016311;-73
2023/03/20 07:35:43;;;;;;;35.20;27.20;;;;;;;9.25;60.64;100425.46;106833;1262;1015910;-73
2023/03/20 07:40:36;;;;;;;35.30;28.60;;;;;;;11.21;58.13;100413.98;106868;1260;1016267;-73
2023/03/20 07:45:34;;;;;;;37.00;29.60;;;;;;;12.37;56.56;100415.20;106879;1257;1072188;-73
2023/03/20 07:50:28;;;;;;;40.00;30.20;;;;;;;14.48;54.14;100411.94;106784;1258;1017337;-74
2023/03/20 07:55:21;;;;;;;33.60;29.30;;;;;;;17.47;51.06;100410.86;106860;1257;1016426;-74
2023/03/20 08:00:15;;;;;;;34.60;29.20;;;;;;;20.18;48.10;100410.27;106931;1261;1016396;-74
2023/03/20 08:05:10;;;;;;;32.70;27.90;;;;;;;21.21;45.91;100402.54;106912;1258;1058560;-74
2023/03/20 08:10:04;;;;;;;31.50;26.00;;;;;;;21.54;44.57;100403.09;106893;1257;1016465;-73
2023/03/20 08:14:56;;;;;;;29.80;26.10;;;;;;;20.56;44.37;100407.16;106832;1258;1016629;-74
2023/03/20 08:19:49;;;;;;;31.80;26.50;;;;;;;21.06;42.15;100400.13;106841;1257;1016389;-74
2023/03/20 08:24:42;;;;;;;32.50;27.20;;;;;;;22.69;40.69;100394.23;106868;1257;1016436;-74
2023/03/20 08:29:35;;;;;;;27.20;24.40;;;;;;;22.78;39.73;100393.54;106844;1257;1016374;-74
2023/03/20 08:34:28;;;;;;;26.70;23.80;;;;;;;23.47;38.39;100389.20;106836;1257;1016347;-74
2023/03/20 08:39:21;;;;;;;30.40;25.80;;;;;;;22.54;38.84;100388.63;106892;1257;1016560;-73
2023/03/20 08:44:14;;;;;;;32.00;25.50;;;;;;;21.96;39.00;100387.16;106868;1258;1016361;-74
2023/03/20 08:49:07;;;;;;;29.40;23.80;;;;;;;20.74;39.41;100392.17;106907;1262;1016316;-74
2023/03/20 08:54:00;;;;;;;31.00;25.10;;;;;;;20.56;39.21;100395.54;106938;1262;1016451;-74
2023/03/20 08:58:54;;;;;;;28.00;23.00;;;;;;;20.04;39.11;100395.23;106900;1257;1016370;-74
2023/03/20 09:03:47;;;;;;;31.60;24.30;;;;;;;19.43;39.42;100393.26;106816;1258;1065752;-74
2023/03/20 09:08:40;;;;;;;31.10;23.70;;;;;;;19.13;39.57;100397.66;106917;1257;1016162;-74
2023/03/20 09:13:34;;;;;;;30.40;23.90;;;;;;;18.76;40.11;100400.95;106889;1261;1016438;-74
2023/03/20 09:18:27;;;;;;;32.80;25.30;;;;;;;18.43;40.34;100403.91;106776;1257;1016298;-73
2023/03/20 09:23:20;;;;;;;31.60;24.00;;;;;;;18.44;40.38;100404.58;106944;1257;1016461;-74
2023/03/20 09:28:13;;;;;;;29.60;22.20;;;;;;;19.09;39.45;100397.23;106908;1260;1016074;-74
2023/03/20 09:33:06;;;;;;;32.60;24.50;;;;;;;18.94;38.97;100390.73;106871;1258;1016129;-75
2023/03/20 09:37:59;;;;;;;31.50;23.70;;;;;;;18.78;38.89;100389.66;106949;1257;1019008;-74
2023/03/20 09:43:14;;;;;;;28.00;22.60;;;;;;;20.14;37.78;100383.43;106925;1257;1016494;-76
2023/03/20 09:48:10;;;;;;;28.30;22.90;;;;;;;21.40;36.19;100382.02;106920;1257;1074795;-75
2023/03/20 09:53:13;;;;;;;24.30;21.10;;;;;;;21.12;36.75;100382.05;106929;1257;1068318;-75
2023/03/20 09:58:21;;;;;;;21.40;18.30;;;;;;;21.50;36.09;100373.05;106767;1258;1070830;-75
2023/03/20 10:03:37;;;;;;;20.00;18.00;;;;;;;22.98;35.11;100374.44;106858;1257;1051606;-75
2023/03/20 10:08:35;;;;;;;17.00;15.20;;;;;;;26.17;32.70;100365.96;106852;1262;1060981;-75
2023/03/20 10:13:37;;;;;;;17.90;16.00;;;;;;;28.34;30.38;100369.00;106955;1257;1072618;-75
2023/03/20 10:18:35;;;;;;;15.10;13.70;;;;;;;29.75;28.96;100360.95;106928;1257;1064935;-75
2023/03/20 10:23:47;;;;;;;18.80;16.90;;;;;;;29.92;28.20;100363.80;106904;1262;1071134;-76
2023/03/20 10:28:57;;;;;;;17.40;15.80;;;;;;;27.64;28.58;100368.30;106843;1257;1050916;-74
2023/03/20 10:34:10;;;;;;;19.30;16.80;;;;;;;26.58;29.72;100365.10;106866;1257;1061990;-75
2023/03/20 10:39:29;;;;;;;17.40;15.60;;;;;;;26.40;29.68;100360.36;106873;1257;1073785;-74
2023/03/20 10:44:42;;;;;;;17.20;15.40;;;;;;;26.55;29.13;100351.71;106817;1257;1065019;-74
2023/03/20 10:49:48;;;;;;;17.50;15.50;;;;;;;25.85;29.51;100353.72;106816;1257;1073609;-75
2023/03/20 10:54:52;;;;;;;23.30;17.80;;;;;;;25.14;29.81;100350.86;106880;1257;1051112;-75
2023/03/20 10:59:48;;;;;;;21.00;18.40;;;;;;;24.82;29.93;100351.52;106865;1257;1058250;-75
2023/03/20 11:04:42;;;;;;;18.50;16.30;;;;;;;24.11;30.63;100358.12;106880;1257;1073037;-78
2023/03/20 11:09:35;;;;;;;17.00;15.00;;;;;;;23.09;31.46;100356.09;106917;1257;1016166;-74
2023/03/20 11:14:37;;;;;;;26.60;21.60;;;;;;;22.42;32.22;100353.02;106876;1257;1018711;-75
2023/03/20 11:19:37;;;;;;;22.50;17.40;;;;;;;21.47;32.45;100354.80;106812;1257;1050629;-74
2023/03/20 11:24:44;;;;;;;24.30;21.20;;;;;;;20.59;33.35;100363.39;106957;1257;1058933;-75
2023/03/20 11:29:39;;;;;;;23.80;17.40;;;;;;;19.89;33.84;100364.48;106887;1257;1072791;-75
2023/03/20 11:34:39;;;;;;;23.50;20.00;;;;;;;19.60;34.31;100358.91;106846;1257;1065003;-74
2023/03/20 11:39:33;;;;;;;26.30;20.50;;;;;;;19.80;34.75;100350.83;106869;1257;1073426;-74
2023/03/20 11:44:32;;;;;;;24.50;20.90;;;;;;;20.27;34.54;100348.33;106886;1257;1016411;-75
2023/03/20 11:49:26;;;;;;;27.50;21.20;;;;;;;20.86;34.32;100337.55;106874;1257;1058367;-74
2023/03/20 11:54:23;;;;;;;24.40;21.30;;;;;;;22.38;33.91;100332.30;106897;1257;1016304;-77
2023/03/20 11:59:18;;;;;;;37.90;27.50;;;;;;;23.01;32.72;100320.00;106955;1257;1065654;-74
2023/03/20 12:04:30;;;;;;;43.10;30.70;;;;;;;22.30;33.09;100327.88;106879;1257;1018789;-73
2023/03/20 12:09:51;;;;;;;33.30;27.30;;;;;;;21.58;33.87;100319.69;106892;1257;1051390;-75
2023/03/20 12:14:57;;;;;;;36.30;27.80;;;;;;;21.04;35.17;100316.92;106885;1261;1059116;-75
2023/03/20 12:19:56;;;;;;;39.50;31.30;;;;;;;20.15;35.58;100323.66;106978;1258;1072719;-75
2023/03/20 12:25:32;;;;;;;27.50;23.40;;;;;;;19.40;36.24;100323.55;106907;1257;1067179;-75
2023/03/20 12:30:45;;;;;;;33.50;24.10;;;;;;;18.74;36.65;100318.64;106479;1265;1070682;-75
2023/03/20 12:35:41;;;;;;;33.80;23.20;;;;;;;18.37;37.24;100321.74;106370;1267;1053814;-75
2023/03/20 12:40:43;;;;;;;30.10;22.60;;;;;;;18.11;37.91;100321.41;106418;1267;1058323;-74
2023/03/20 12:45:41;;;;;;;29.00;21.40;;;;;;;17.81;38.34;100318.11;106413;1267;1072473;-74
2023/03/20 12:50:39;;;;;;;31.50;23.50;;;;;;;17.47;38.69;100316.61;106369;1265;1065153;-74
2023/03/20 12:55:45;;;;;;;32.00;23.80;;;;;;;17.29;39.34;100313.25;106358;1265;1070369;-74
2023/03/20 13:01:03;;;;;;;31.90;23.70;;;;;;;17.34;39.82;100313.34;106656;1257;1053313;-74
2023/03/20 13:06:21;;;;;;;29.00;22.40;;;;;;;17.33;40.02;100313.89;106876;1257;1057744;-74
2023/03/20 13:11:39;;;;;;;30.90;23.00;;;;;;;17.18;40.14;100309.42;106972;1260;1072227;-74
2023/03/20 13:16:40;;;;;;;28.60;22.20;;;;;;;17.00;40.34;100306.90;106905;1261;1064939;-74
2023/03/20 13:21:40;;;;;;;28.50;23.00;;;;;;;16.83;40.73;100305.40;106957;1257;1070429;-74
2023/03/20 13:26:42;;;;;;;26.80;20.30;;;;;;;16.63;40.56;100305.67;106916;1257;1050835;-74
2023/03/20 13:32:02;;;;;;;23.30;18.30;;;;;;;16.52;41.13;100304.79;106929;1257;1059071;-75
2023/03/20 13:37:06;;;;;;;30.10;22.20;;;;;;;16.32;41.01;100302.77;106942;1257;1073140;-74
2023/03/20 13:42:20;;;;;;;28.60;20.50;;;;;;;16.19;41.49;100304.86;106883;1257;1065045;-73
2023/03/20 13:47:20;;;;;;;22.10;18.80;;;;;;;16.07;41.83;100304.69;106871;1257;1071641;-73
2023/03/20 13:52:22;;;;;;;24.30;18.30;;;;;;;15.98;42.19;100299.35;106868;1257;1050409;-74
2023/03/20 13:57:40;;;;;;;23.70;18.90;;;;;;;15.83;42.66;100302.52;106792;1257;1059058;-74
2023/03/20 14:02:37;;;;;;;28.70;17.10;;;;;;;15.60;43.61;100302.02;106901;1257;1073079;-74
2023/03/20 14:07:35;;;;;;;;;;;;;;;15.35;44.38;100300.01;106824;1257;1067491;-75
2023/03/20 14:12:32;;;;;;;17.60;15.50;;;;;;;15.03;45.33;100300.98;106878;1257;1072907;-75
2023/03/20 14:17:29;;;;;;;19.90;16.20;;;;;;;14.85;46.21;100298.84;106856;1257;1049585;-74
2023/03/20 14:22:27;;;;;;;27.40;22.20;;;;;;;14.71;47.17;100298.94;106853;1257;1060775;-74
2023/03/20 14:27:22;;;;;;;34.60;24.20;;;;;;;14.65;47.95;100303.16;106951;1258;1073016;-74
2023/03/20 14:32:35;;;;;;;25.40;20.80;;;;;;;14.70;48.60;100299.81;106881;1257;1065552;-75
2023/03/20 14:37:56;;;;;;;31.30;25.30;;;;;;;14.70;49.42;100305.05;106895;1257;1070994;-76
2023/03/20 14:43:00;;;;;;;32.70;25.20;;;;;;;14.66;50.03;100304.73;106920;1257;1051323;-74
2023/03/20 14:48:07;;;;;;;32.90;26.70;;;;;;;14.61;50.72;100305.10;106821;1257;1058144;-75
2023/03/20 14:53:20;;;;;;;33.50;22.80;;;;;;;14.52;51.29;100311.58;106933;1257;1071302;-74
2023/03/20 14:58:33;;;;;;;33.00;27.00;;;;;;;14.34;52.67;100309.05;106908;1257;1064198;-74
2023/03/20 15:03:26;;;;;;;30.60;25.30;;;;;;;14.15;54.07;100312.62;106915;1257;1071865;-74
2023/03/20 15:08:31;;;;;;;28.10;22.90;;;;;;;14.09;54.69;100313.87;106780;1259;1016034;-74
2023/03/20 15:13:26;;;;;;;25.70;21.80;;;;;;;14.02;54.93;100312.16;106944;1257;1058059;-76
2023/03/20 15:18:21;;;;;;;29.80;23.00;;;;;;;13.94;55.35;100309.22;106894;1257;1017192;-73
2023/03/20 15:23:15;;;;;;;25.50;22.60;;;;;;;13.83;56.05;100312.21;106915;1257;1065379;-73
2023/03/20 15:28:13;;;;;;;28.20;23.10;;;;;;;13.69;56.85;100311.90;106954;1258;1016189;-74
2023/03/20 15:33:17;;;;;;;26.90;23.20;;;;;;;13.65;57.46;100308.42;106920;1257;1051098;-73
2023/03/20 15:38:14;;;;;;;25.50;22.50;;;;;;;13.63;58.11;100309.82;106886;1259;1058524;-73
2023/03/20 15:43:26;;;;;;;;;;;;;;;13.54;58.50;100312.81;106930;1257;1075119;-73
2023/03/20 15:48:21;;;;;;;20.00;17.80;;;;;;;13.40;59.13;100319.96;106931;1257;1066361;-73
2023/03/20 15:53:44;;;;;;;18.10;14.90;;;;;;;13.28;59.57;100323.95;106885;1259;1071093;-73
2023/03/20 15:58:38;;;;;;;17.80;15.60;;;;;;;13.13;60.32;100330.38;106831;1258;1051080;-73
2023/03/20 16:03:31;;;;;;;18.20;16.40;;;;;;;12.99;61.11;100332.10;106858;1257;1016091;-74
2023/03/20 16:08:30;;;;;;;18.40;16.40;;;;;;;12.88;61.69;100335.92;106899;1258;1016556;-73
2023/03/20 16:13:24;;;;;;;17.00;15.20;;;;;;;12.81;62.19;100340.77;106941;1257;1065340;-74
2023/03/20 16:18:18;;;;;;;19.10;15.60;;;;;;;12.71;62.50;100343.02;106780;1257;1016080;-74
2023/03/20 16:23:27;;;;;;;15.00;12.30;;;;;;;12.66;62.59;100343.02;106845;1262;1015820;-75
2023/03/20 16:28:20;;;;;;;11.90;10.40;;;;;;;12.56;62.43;100343.67;106891;1257;1058416;-74
2023/03/20 16:33:17;;;;;;;13.30;10.90;;;;;;;12.48;62.45;100350.27;106887;1257;1016296;-73
2023/03/20 16:38:33;;;;;;;13.00;9.30;;;;;;;12.41;62.54;100346.42;106899;1257;1064973;-74
2023/03/20 16:43:32;;;;;;;10.10;8.60;;;;;;;12.33;62.57;100337.34;106893;1257;1070430;-75
2023/03/20 16:48:36;;;;;;;10.40;9.00;;;;;;;12.25;62.71;100332.62;106898;1258;1049918;-73
2023/03/20 16:53:37;;;;;;;8.60;7.50;;;;;;;12.15;62.88;100324.76;106944;1258;1059130;-74
2023/03/20 16:58:33;;;;;;;10.20;8.30;;;;;;;12.07;62.94;100330.11;106868;1257;1072364;-74
2023/03/20 17:03:36;;;;;;;10.80;8.90;;;;;;;12.01;63.18;100335.12;106906;1257;1079916;-74
2023/03/20 17:08:54;;;;;;;9.80;8.60;;;;;;;11.96;63.35;100333.35;106865;1262;1070805;-74
2023/03/20 17:13:48;;;;;;;;;;;;;;;11.90;63.76;100340.95;106882;1259;1050905;-74
2023/03/20 17:18:41;;;;;;;12.00;9.00;;;;;;;11.79;64.41;100342.42;106868;1260;1016417;-74
2023/03/20 17:23:34;;;;;;;13.10;11.30;;;;;;;11.69;64.53;100353.30;106853;1257;1016673;-74
2023/03/20 17:28:33;;;;;;;13.00;11.60;;;;;;;11.57;65.11;100358.61;106905;1258;1015860;-74
2023/03/20 17:33:28;;;;;;;16.10;13.90;;;;;;;11.47;65.37;100358.55;106791;1257;1070102;-74
2023/03/20 17:38:22;;;;;;;20.30;17.00;;;;;;;11.39;65.58;100363.68;106806;1259;1051600;-73
2023/03/20 17:43:16;;;;;;;20.40;16.10;;;;;;;11.33;65.87;100364.15;106861;1262;1016403;-73
2023/03/20 17:48:15;;;;;;;20.30;15.40;;;;;;;11.27;66.14;100353.34;106997;1257;1016131;-74
2023/03/20 17:53:17;;;;;;;19.40;15.60;;;;;;;11.19;66.31;100352.76;106910;1259;1064985;-74
2023/03/20 17:58:14;;;;;;;18.30;14.10;;;;;;;11.08;66.21;100349.89;106911;1257;1071706;-74
2023/03/20 18:03:08;;;;;;;16.00;14.20;;;;;;;10.93;66.64;100345.91;106821;1257;1051284;-74
2023/03/20 18:08:01;;;;;;;16.10;13.60;;;;;;;10.72;66.62;100351.61;106740;1259;1016015;-74
2023/03/20 18:12:54;;;;;;;21.20;15.60;;;;;;;10.50;66.49;100351.02;106861;1259;1016429;-75
2023/03/20 18:17:47;;;;;;;19.40;17.20;;;;;;;10.29;67.16;100346.09;106790;1257;1016262;-74
2023/03/20 18:22:39;;;;;;;17.50;14.70;;;;;;;10.12;67.25;100344.47;106821;1257;1015846;-74
2023/03/20 18:27:32;;;;;;;17.90;15.40;;;;;;;9.91;66.78;100347.84;106819;1259;1018220;-74
2023/03/20 18:32:25;;;;;;;19.20;16.50;;;;;;;9.71;66.66;100352.56;106773;1259;1016085;-73
2023/03/20 18:37:18;;;;;;;16.80;14.90;;;;;;;9.56;66.97;100360.82;106741;1258;1016124;-73
2023/03/20 18:42:13;;;;;;;19.20;15.10;;;;;;;9.42;66.99;100357.15;106746;1257;1065394;-73
2023/03/20 18:47:06;;;;;;;17.90;15.60;;;;;;;9.32;67.40;100357.68;106745;1260;1016508;-73
2023/03/20 18:51:59;;;;;;;21.50;17.00;;;;;;;9.25;68.00;100349.27;106774;1257;1016794;-73
2023/03/20 18:56:53;;;;;;;19.20;15.90;;;;;;;9.15;67.62;100357.73;106817;1257;1016410;-73
2023/03/20 19:01:47;;;;;;;22.40;18.10;;;;;;;9.01;68.22;100359.75;106812;1259;1016369;-73
2023/03/20 19:06:40;;;;;;;21.40;19.00;;;;;;;8.94;68.74;100359.29;106798;1260;1016540;-73
2023/03/20 19:11:33;;;;;;;20.50;18.30;;;;;;;8.87;68.94;100359.85;106788;1258;1016726;-73
2023/03/20 19:16:29;;;;;;;25.00;19.20;;;;;;;8.82;69.09;100354.58;106832;1260;1016195;-73
2023/03/20 19:21:24;;;;;;;20.10;16.40;;;;;;;8.74;68.92;100353.05;106827;1258;1058336;-73
2023/03/20 19:26:19;;;;;;;21.60;19.30;;;;;;;8.67;69.13;100353.09;106842;1262;1073177;-73
2023/03/20 19:31:13;;;;;;;23.90;19.50;;;;;;;8.65;69.56;100360.82;106855;1258;1065591;-73
2023/03/20 19:36:08;;;;;;;21.40;17.60;;;;;;;8.68;69.61;100363.48;106822;1259;1016444;-73
2023/03/20 19:41:02;;;;;;;25.00;19.30;;;;;;;8.66;69.83;100369.65;106851;1258;1051460;-73
2023/03/20 19:45:55;;;;;;;25.90;20.00;;;;;;;8.69;70.18;100365.04;106868;1259;1058698;-73
2023/03/20 19:50:51;;;;;;;26.40;21.50;;;;;;;8.71;70.40;100361.11;106840;1258;1075545;-73
2023/03/20 19:55:45;;;;;;;22.00;18.50;;;;;;;8.70;70.26;100359.35;106897;1259;1018840;-73
2023/03/20 20:00:40;;;;;;;25.50;19.80;;;;;;;8.58;69.77;100363.98;106796;1257;1015987;-73
2023/03/20 20:05:53;;;;;;;24.10;19.00;;;;;;;8.47;70.10;100365.13;106838;1260;1053894;-73
2023/03/20 20:10:51;;;;;;;23.00;18.80;;;;;;;8.36;70.13;100368.86;106849;1257;1016518;-73
2023/03/20 20:15:45;;;;;;;29.60;23.20;;;;;;;8.23;70.12;100361.16;106866;1261;1073340;-73
2023/03/20 20:20:38;;;;;;;31.00;24.40;;;;;;;8.18;70.71;100360.55;106925;1259;1016463;-73
2023/03/20 20:25:53;;;;;;;27.30;21.60;;;;;;;8.17;70.97;100358.80;106821;1259;1070470;-73
2023/03/20 20:30:48;;;;;;;31.60;24.20;;;;;;;8.15;71.13;100357.20;106830;1259;1051379;-73
2023/03/20 20:35:41;;;;;;;28.10;21.90;;;;;;;8.14;71.10;100357.19;106667;1259;1057428;-72
2023/03/20 20:40:54;;;;;;;32.50;24.90;;;;;;;8.17;71.35;100360.52;106809;1257;1073914;-73
2023/03/20 20:45:51;;;;;;;34.00;26.90;;;;;;;8.26;71.78;100364.52;106790;1259;1016322;-73
2023/03/20 20:50:45;;;;;;;42.10;32.30;;;;;;;8.37;71.94;100378.20;106691;1257;1070682;-72
2023/03/20 20:55:38;;;;;;;43.20;31.90;;;;;;;8.52;72.46;100375.61;106717;1260;1016138;-72
2023/03/20 21:00:32;;;;;;;40.70;29.60;;;;;;;8.69;72.75;100377.16;106760;1259;1016241;-73
2023/03/20 21:05:42;;;;;;;37.00;31.10;;;;;;;8.86;73.07;100377.12;106823;1257;1072446;-72
2023/03/20 21:10:35;;;;;;;36.60;32.20;;;;;;;8.97;73.46;100373.34;106847;1258;1016192;-73
2023/03/20 21:15:28;;;;;;;35.90;29.70;;;;;;;9.07;73.79;100372.48;106859;1259;1016327;-72
2023/03/20 21:20:21;;;;;;;33.60;28.40;;;;;;;9.15;73.90;100373.48;106714;1259;1016444;-73
2023/03/20 21:25:16;;;;;;;34.00;26.90;;;;;;;9.20;74.05;100377.20;106780;1257;1018796;-71
2023/03/20 21:30:12;;;;;;;29.50;23.90;;;;;;;9.23;74.18;100371.70;106732;1259;1073088;-72
2023/03/20 21:35:08;;;;;;;30.20;25.00;;;;;;;9.23;74.39;100374.83;106718;1262;1016808;-72
2023/03/20 21:40:00;;;;;;;31.80;26.80;;;;;;;9.23;74.25;100374.48;106955;1258;1070922;-71
2023/03/20 21:44:54;;;;;;;31.10;23.30;;;;;;;9.25;74.55;100376.93;106706;1261;1016361;-72
2023/03/20 21:50:11;;;;;;;28.40;23.90;;;;;;;9.25;74.59;100376.58;106819;1261;1060849;-72
2023/03/20 21:55:24;;;;;;;29.60;24.20;;;;;;;9.22;74.62;100373.95;106785;1259;1072862;-73
2023/03/20 22:00:37;;;;;;;28.80;24.40;;;;;;;9.22;74.93;100367.02;106799;1259;1066270;-72
2023/03/20 22:05:50;;;;;;;29.60;26.30;;;;;;;9.20;74.83;100370.64;106790;1258;1070426;-71